Decoded Metar for DABC (CONSTANTINE in ALGERIA) (IATA:CZL) | Meteo·Mobile Aviation Weather
aviador You're here:

DABC Decoded Metar

CONSTANTINE in ALGERIA
Report Time2018-12-18 16:30:00
UTC Time2018-12-18 17:06:22
Flight Rules vfr VFR
Wind200° at 06 kt
W.Decomp.*RWY 16: 4.6 kt HW 3.9 kt RCW
RWY 14: 3.0 kt HW 5.2 kt RCW
W.Rank200° ranks 30
Current wind is above 200° avg. (5.7)
Visibility9999 m
Phenomena:N/A
Clouds:N/A
Expected CloudBase > 2,800 ft AGL from Temp-Dew spread
CeilingNone
Temp09°C (ISA -1)
Dew Point02°C (62% RH)
AAT5.2°C
QNH1025 hPa
Density Alt1,801 ft
Elevation2,277 ft
Report Wrong Elevation
Raw Report
DABC 181630Z 20006KT CAVOK 09/02 Q1025=

Extra information for DABC:More info

Metar Taf Metar & Taf Last 4 Metars F.Rules Stats Wind Profile Meteogram Temp Stats Airport Information Weather charts Add Link Nearby VenuesMetar ALERT Operation Metar Decoded Social comments